»·PEaware :: DAL2841 KSLC-KPDX

DAL2841 :: KSLC-KPDX

FLIGHT INFORMATION

Flight Status: Arrived
Operator:
Delta Air Lines
More flights by this operator :: More flights under this callsign
Pilot: Joe P. (13940)
Aircraft: MCDONNELL-DOUGLAS MD-82
(MD82)
More flights by this aircraft type
Origin: KSLC Salt Lake City Intl
United States
Destination: KPDX Portland Intl
United States
More flights between these airports :: More routes between these airports
Route: CGULL1 TWF J15 BOI J163 BKE JOTBA HHOOD4
File this flight plan on PilotEdge
Remarks: KSEA -PBN / B3B4B5D3D4 DOF / 180727 REG / N904DL EET / KZSE0058
Altitude:
(Current/Filed)
340ft
Speed:
(Current/Filed)
458kts
Departed: 26-Jul-18 05:02 PM
Arrived: 26-Jul-18 06:38 PM
Distance/Time
Traveled:
546nm/1:36
Distance/Time
To Go:
Arrived

Flight Plot

Page will automatically refresh every two minutes.

Flight plan parsing failed; only flown route is shown


Map Options




Map Legend


Flown Route
Filed Route
Departure Airport
Arrival Airport
Navaid (VOR, NDB)
Fix

Horizontal Profiles

Position Reports

Time Latitude Longitude Heading Altitude Ground
Speed
26-Jul-18 16:11 40.785586 -111.978056 231 4236ft 0kts
26-Jul-18 16:12 40.785586 -111.978056 231 4236ft 0kts
26-Jul-18 16:13 40.785586 -111.978056 231 4236ft 0kts
26-Jul-18 16:14 40.785586 -111.978056 231 4236ft 0kts
26-Jul-18 16:15 40.785586 -111.978056 231 4236ft 0kts
26-Jul-18 16:16 40.785586 -111.978056 231 4236ft 0kts
26-Jul-18 16:17 40.785586 -111.978056 231 4236ft 0kts
26-Jul-18 16:18 40.785586 -111.978056 231 4236ft 0kts
26-Jul-18 16:19 40.785586 -111.978056 231 4236ft 0kts
26-Jul-18 16:20 40.785586 -111.978056 231 4236ft 0kts
26-Jul-18 16:21 40.785586 -111.978056 231 4236ft 0kts
26-Jul-18 16:22 40.785586 -111.978056 231 4236ft 0kts
26-Jul-18 16:23 40.785586 -111.978056 231 4236ft 0kts
26-Jul-18 16:24 40.785586 -111.978056 231 4236ft 0kts
26-Jul-18 16:25 40.785586 -111.978056 231 4236ft 0kts
26-Jul-18 16:26 40.785586 -111.978056 231 4236ft 0kts
26-Jul-18 16:27 40.785586 -111.978056 231 4236ft 0kts
26-Jul-18 16:28 40.785586 -111.978056 231 4236ft 0kts
26-Jul-18 16:29 40.785586 -111.978056 231 4236ft 0kts
26-Jul-18 16:30 40.785586 -111.978056 231 4236ft 0kts
26-Jul-18 16:31 40.785586 -111.978056 231 4236ft 0kts
26-Jul-18 16:32 40.785586 -111.978056 231 4236ft 0kts
26-Jul-18 16:33 40.785586 -111.978056 231 4236ft 0kts
26-Jul-18 16:34 40.785586 -111.978056 231 4236ft 0kts
26-Jul-18 16:35 40.785586 -111.978056 231 4236ft 0kts
26-Jul-18 16:36 40.785586 -111.978056 231 4236ft 0kts
26-Jul-18 16:37 40.785586 -111.978056 231 4236ft 0kts
26-Jul-18 16:38 40.785586 -111.978056 231 4236ft 0kts
26-Jul-18 16:39 40.785586 -111.978056 231 4236ft 0kts
26-Jul-18 16:40 40.785586 -111.978056 231 4236ft 0kts
26-Jul-18 16:41 40.785586 -111.978056 231 4236ft 0kts
26-Jul-18 16:42 40.785586 -111.978056 231 4236ft 0kts
26-Jul-18 16:43 40.785586 -111.978056 231 4236ft 0kts
26-Jul-18 16:44 40.785586 -111.978056 231 4236ft 0kts
26-Jul-18 16:45 40.785586 -111.978056 231 4236ft 0kts
26-Jul-18 16:46 40.785586 -111.978056 231 4236ft 0kts
26-Jul-18 16:47 40.785586 -111.978056 231 4236ft 0kts
26-Jul-18 16:48 40.785586 -111.978056 231 4236ft 0kts
26-Jul-18 16:49 40.785586 -111.978056 231 4236ft 0kts
26-Jul-18 16:50 40.785586 -111.978056 231 4236ft 0kts
26-Jul-18 16:51 40.785586 -111.978056 231 4236ft 0kts
26-Jul-18 16:52 40.785586 -111.978056 231 4236ft 0kts
26-Jul-18 16:53 40.785894 -111.977673 210 4236ft 2kts
26-Jul-18 16:54 40.786413 -111.977469 182 4236ft 0kts
26-Jul-18 16:55 40.786413 -111.977469 182 4236ft 0kts
26-Jul-18 16:56 40.786412 -111.977469 182 4236ft 0kts
26-Jul-18 16:57 40.785871 -111.977294 160 4236ft 7kts
26-Jul-18 16:58 40.782809 -111.976474 172 4236ft 11kts
26-Jul-18 16:59 40.779102 -111.975507 169 4236ft 15kts
26-Jul-18 17:00 40.774716 -111.974968 175 4236ft 6kts
26-Jul-18 17:01 40.774490 -111.974689 107 4236ft 2kts
26-Jul-18 17:02 40.774897 -111.973255 44 4236ft 7kts
26-Jul-18 17:03 40.788414 -111.974659 354 4236ft 132kts
26-Jul-18 17:04 40.832568 -111.989332 304 5780ft 184kts
26-Jul-18 17:05 40.859385 -112.071669 292 6684ft 286kts
26-Jul-18 17:06 40.887172 -112.162921 292 10353ft 250kts
26-Jul-18 17:07 40.915928 -112.255764 292 11800ft 282kts
26-Jul-18 17:08 40.944920 -112.348074 294 14871ft 253kts
26-Jul-18 17:09 41.007263 -112.396871 338 15633ft 304kts
26-Jul-18 17:10 41.092741 -112.442268 329 16468ft 343kts
26-Jul-18 17:11 41.175301 -112.512389 323 18415ft 356kts
26-Jul-18 17:12 41.254901 -112.593989 319 20376ft 366kts
26-Jul-18 17:13 41.336571 -112.679354 319 22139ft 376kts
26-Jul-18 17:14 41.419421 -112.766188 318 23900ft 384kts
26-Jul-18 17:15 41.504504 -112.855688 318 25389ft 394kts
26-Jul-18 17:16 41.579276 -112.961824 301 26720ft 396kts
26-Jul-18 17:17 41.644234 -113.082376 305 27909ft 403kts
26-Jul-18 17:18 41.714893 -113.201054 304 28831ft 411kts
26-Jul-18 17:19 41.785338 -113.322750 304 29731ft 415kts
26-Jul-18 17:20 41.855612 -113.444133 304 30862ft 410kts
26-Jul-18 17:21 41.925482 -113.564914 303 31832ft 408kts
26-Jul-18 17:22 41.994515 -113.685396 303 32811ft 404kts
26-Jul-18 17:23 42.062926 -113.804401 303 33650ft 402kts
26-Jul-18 17:24 42.131120 -113.924011 302 34138ft 408kts
26-Jul-18 17:25 42.202007 -114.043729 305 34138ft 408kts
26-Jul-18 17:26 42.276030 -114.161040 305 34140ft 409kts
26-Jul-18 17:27 42.349601 -114.277920 305 34145ft 409kts
26-Jul-18 17:28 42.423441 -114.395092 305 34147ft 408kts
26-Jul-18 17:29 42.496778 -114.511519 305 34148ft 407kts
26-Jul-18 17:30 42.571442 -114.627337 306 34145ft 406kts
26-Jul-18 17:31 42.645620 -114.742459 305 34141ft 405kts
26-Jul-18 17:32 42.719621 -114.857709 305 34137ft 404kts
26-Jul-18 17:33 42.793803 -114.973160 305 34134ft 404kts
26-Jul-18 17:34 42.867585 -115.088395 305 34126ft 404kts
26-Jul-18 17:35 42.941062 -115.204334 305 34113ft 402kts
26-Jul-18 17:36 43.014147 -115.320022 305 34097ft 403kts
26-Jul-18 17:37 43.087003 -115.435839 305 34076ft 401kts
26-Jul-18 17:38 43.159975 -115.551794 305 34067ft 400kts
26-Jul-18 17:39 43.232753 -115.667438 304 34064ft 400kts
26-Jul-18 17:40 43.304841 -115.783412 304 34064ft 399kts
26-Jul-18 17:41 43.377025 -115.899814 304 34063ft 398kts
26-Jul-18 17:42 43.448543 -116.015428 304 34058ft 396kts
26-Jul-18 17:43 43.520459 -116.131522 304 34051ft 397kts
26-Jul-18 17:44 43.597735 -116.241520 311 34048ft 403kts
26-Jul-18 17:45 43.682076 -116.343967 311 34039ft 403kts
26-Jul-18 17:46 43.766078 -116.446867 311 34031ft 403kts
26-Jul-18 17:47 43.850114 -116.550023 311 34024ft 404kts
26-Jul-18 17:48 43.934405 -116.653597 311 34022ft 404kts
26-Jul-18 17:49 44.018500 -116.757831 311 34019ft 405kts
26-Jul-18 17:50 44.102157 -116.861793 311 34016ft 404kts
26-Jul-18 17:51 44.185904 -116.966583 311 34018ft 405kts
26-Jul-18 17:52 44.269789 -117.071863 311 34031ft 406kts
26-Jul-18 17:53 44.353748 -117.177523 311 34052ft 406kts
26-Jul-18 17:54 44.437636 -117.283767 311 34079ft 406kts
26-Jul-18 17:55 44.521553 -117.390392 311 34102ft 408kts
26-Jul-18 17:56 44.605645 -117.497514 311 34120ft 408kts
26-Jul-18 17:57 44.689667 -117.604910 311 34131ft 408kts
26-Jul-18 17:58 44.773498 -117.712483 311 34137ft 407kts
26-Jul-18 17:59 44.841164 -117.834583 289 34142ft 394kts
26-Jul-18 18:00 44.870009 -117.981658 276 34138ft 388kts
26-Jul-18 18:01 44.887077 -118.132760 277 34137ft 392kts
26-Jul-18 18:02 44.907006 -118.283682 277 34138ft 392kts
26-Jul-18 18:03 44.926564 -118.435131 277 34135ft 393kts
26-Jul-18 18:04 44.945530 -118.586145 277 33035ft 385kts
26-Jul-18 18:05 44.963911 -118.734655 277 32032ft 381kts
26-Jul-18 18:06 44.982056 -118.880901 277 31033ft 376kts
26-Jul-18 18:07 45.000047 -119.025786 277 30206ft 373kts
26-Jul-18 18:08 45.017663 -119.169564 277 29405ft 369kts
26-Jul-18 18:09 45.034822 -119.311591 277 28607ft 366kts
26-Jul-18 18:10 45.051689 -119.453196 277 27841ft 363kts
26-Jul-18 18:11 45.068329 -119.593193 277 27234ft 360kts
26-Jul-18 18:12 45.084135 -119.732543 277 26634ft 358kts
26-Jul-18 18:13 45.099972 -119.871217 277 26032ft 355kts
26-Jul-18 18:14 45.116502 -120.015794 277 25493ft 387kts
26-Jul-18 18:15 45.133189 -120.167391 275 26038ft 391kts
26-Jul-18 18:16 45.147299 -120.319530 277 26846ft 390kts
26-Jul-18 18:17 45.165921 -120.471674 278 25982ft 386kts
26-Jul-18 18:18 45.202970 -120.612244 297 23987ft 381kts
26-Jul-18 18:19 45.255715 -120.741657 295 23595ft 381kts
26-Jul-18 18:20 45.305867 -120.873568 296 23590ft 381kts
26-Jul-18 18:21 45.356791 -121.006208 296 21159ft 373kts
26-Jul-18 18:22 45.404943 -121.131283 295 18896ft 348kts
26-Jul-18 18:23 45.442905 -121.253566 285 16669ft 328kts
26-Jul-18 18:24 45.467084 -121.381815 284 15072ft 316kts
26-Jul-18 18:25 45.490918 -121.501449 284 13742ft 315kts
26-Jul-18 18:26 45.513638 -121.617561 284 11905ft 293kts
26-Jul-18 18:27 45.533817 -121.724578 280 11278ft 285kts
26-Jul-18 18:28 45.539103 -121.834947 272 9861ft 264kts
26-Jul-18 18:29 45.541863 -121.938787 273 8247ft 264kts
26-Jul-18 18:30 45.546306 -122.036959 270 6962ft 237kts
26-Jul-18 18:31 45.516416 -122.115205 236 6249ft 226kts
26-Jul-18 18:32 45.478831 -122.188734 237 5680ft 226kts
26-Jul-18 18:33 45.461953 -122.270639 299 3864ft 219kts
26-Jul-18 18:34 45.496854 -122.337847 297 3546ft 187kts
26-Jul-18 18:35 45.516959 -122.396662 298 2662ft 146kts
26-Jul-18 18:36 45.536721 -122.447018 299 1911ft 144kts
26-Jul-18 18:37 45.556504 -122.497305 299 1167ft 145kts
26-Jul-18 18:38 45.575899 -122.547088 300 405ft 141kts
26-Jul-18 18:39 45.588587 -122.579441 298 27ft 8kts
26-Jul-18 18:40 45.588844 -122.582055 218 27ft 0kts
26-Jul-18 18:41 45.588830 -122.582071 217 27ft 0kts
26-Jul-18 18:42 45.588155 -122.584454 297 27ft 13kts
26-Jul-18 18:43 45.590002 -122.589051 298 27ft 13kts
26-Jul-18 18:44 45.591681 -122.593444 290 27ft 6kts
26-Jul-18 18:45 45.591309 -122.594095 212 27ft 0kts
26-Jul-18 18:46 45.591309 -122.594095 212 27ft 0kts
26-Jul-18 18:47 45.591309 -122.594095 212 27ft 0kts
26-Jul-18 18:48 45.591309 -122.594095 212 27ft 0kts
26-Jul-18 18:49 45.591309 -122.594095 212 27ft 0kts
26-Jul-18 18:50 45.591309 -122.594095 212 27ft 0kts
26-Jul-18 18:51 45.591309 -122.594095 212 27ft 0kts
26-Jul-18 18:52 45.591309 -122.594095 212 27ft 0kts
26-Jul-18 18:53 45.591309 -122.594095 212 27ft 0kts

Navigation Log

Ident Type
Flight plan parsing failed, navigation log unavailable